createdAt,value
2018-10-19T00:00:05.900Z,25.20
2018-10-19T00:00:44.068Z,27.62
2018-10-19T00:01:23.208Z,29.63
2018-10-19T00:02:01.726Z,25.43
2018-10-19T00:02:39.652Z,27.00
2018-10-19T00:03:17.541Z,27.32
2018-10-19T00:03:55.676Z,26.90
2018-10-19T00:04:34.849Z,28.45
2018-10-19T00:05:12.999Z,27.80
2018-10-19T00:05:51.733Z,26.30
2018-10-19T00:06:30.796Z,28.02
2018-10-19T00:07:08.957Z,27.50
2018-10-19T00:07:49.166Z,24.18
2018-10-19T00:08:27.584Z,28.50
2018-10-19T00:09:06.714Z,29.75
2018-10-19T00:09:45.864Z,29.15
2018-10-19T00:10:24.304Z,27.70
2018-10-19T00:11:02.178Z,42.00
2018-10-19T00:11:40.122Z,28.42
2018-10-19T00:12:18.608Z,26.97
2018-10-19T00:12:57.296Z,29.67
2018-10-19T00:13:36.545Z,31.42
2018-10-19T00:14:15.341Z,31.75
2018-10-19T00:14:53.363Z,29.25
2018-10-19T00:15:31.690Z,29.67
2018-10-19T00:16:11.202Z,29.63
2018-10-19T00:16:49.268Z,27.25
2018-10-19T00:17:27.435Z,27.98
2018-10-19T00:18:06.651Z,29.18
2018-10-19T00:18:44.902Z,30.92
2018-10-19T00:19:22.872Z,30.27
2018-10-19T00:20:01.176Z,30.55
2018-10-19T00:20:39.154Z,38.83
2018-10-19T00:21:17.693Z,33.78
2018-10-19T00:21:56.089Z,32.55
2018-10-19T00:22:35.308Z,30.10
2018-10-19T00:23:13.633Z,30.92
2018-10-19T00:23:51.903Z,32.38
2018-10-19T00:24:31.588Z,31.07
2018-10-19T00:25:10.667Z,33.30
2018-10-19T00:25:49.559Z,29.42
2018-10-19T00:26:27.802Z,32.10
2018-10-19T00:27:07.124Z,29.35
2018-10-19T00:27:45.591Z,35.88
2018-10-19T00:28:24.190Z,29.40
2018-10-19T00:29:02.322Z,35.40
2018-10-19T00:29:41.160Z,34.48
2018-10-19T00:30:19.053Z,42.80
2018-10-19T00:30:57.488Z,36.03
2018-10-19T00:31:36.102Z,36.60
2018-10-19T00:32:14.941Z,34.38
2018-10-19T00:32:53.387Z,39.13
2018-10-19T00:33:31.356Z,41.10
2018-10-19T00:34:09.819Z,54.48
2018-10-19T00:34:47.746Z,137.10
2018-10-19T00:35:25.788Z,110.75
2018-10-19T00:36:04.297Z,154.65
2018-10-19T00:36:42.141Z,79.37
2018-10-19T00:37:20.197Z,136.15
2018-10-19T00:37:58.153Z,119.15
2018-10-19T00:38:36.028Z,32.07
2018-10-19T00:39:15.152Z,49.88
2018-10-19T00:39:53.171Z,35.20
2018-10-19T00:40:31.110Z,48.85
2018-10-19T00:41:09.084Z,40.05
2018-10-19T00:41:47.100Z,33.08
2018-10-19T00:42:25.101Z,32.75
2018-10-19T00:43:03.061Z,28.27
2018-10-19T00:43:42.302Z,32.30
2018-10-19T00:44:23.340Z,28.52
2018-10-19T00:45:01.280Z,33.70
2018-10-19T00:45:43.673Z,32.83
2018-10-19T00:46:21.560Z,47.35
2018-10-19T00:46:59.915Z,47.55
2018-10-19T00:47:38.048Z,70.30
2018-10-19T00:48:19.258Z,33.63
2018-10-19T00:48:57.297Z,32.30
2018-10-19T00:49:35.624Z,31.02
2018-10-19T00:50:14.244Z,28.60
2018-10-19T00:50:52.942Z,77.47
2018-10-19T00:51:31.047Z,113.03
2018-10-19T00:52:08.961Z,37.67
2018-10-19T00:52:47.093Z,29.12
2018-10-19T00:53:25.424Z,27.35
2018-10-19T00:54:04.561Z,26.68
2018-10-19T00:54:42.524Z,26.42
2018-10-19T00:55:20.983Z,26.82
2018-10-19T00:55:59.262Z,29.05
2018-10-19T00:56:37.520Z,27.97
2018-10-19T00:57:15.690Z,28.60
2018-10-19T00:57:53.986Z,31.00
2018-10-19T00:58:32.030Z,34.80
2018-10-19T00:59:09.932Z,42.58
2018-10-19T00:59:48.461Z,49.98
2018-10-19T01:00:26.364Z,38.65
2018-10-19T01:01:04.260Z,29.35
2018-10-19T01:01:42.156Z,27.22
2018-10-19T01:02:19.957Z,29.35
2018-10-19T01:02:57.949Z,32.85
2018-10-19T01:03:36.961Z,31.05
2018-10-19T01:04:15.380Z,34.20
2018-10-19T01:04:54.812Z,50.73
2018-10-19T01:05:32.729Z,41.30
2018-10-19T01:06:10.637Z,46.13
2018-10-19T01:06:48.960Z,46.40
2018-10-19T01:07:27.086Z,91.25
2018-10-19T01:08:05.131Z,44.85
2018-10-19T01:08:43.016Z,50.17
2018-10-19T01:09:21.499Z,151.42
2018-10-19T01:10:00.578Z,71.17
2018-10-19T01:10:38.791Z,99.13
2018-10-19T01:11:16.877Z,100.05
2018-10-19T01:11:55.093Z,161.80
2018-10-19T01:12:33.123Z,249.75
2018-10-19T01:13:11.501Z,146.90
2018-10-19T01:13:49.787Z,208.30
2018-10-19T01:14:27.769Z,220.22
2018-10-19T01:15:06.819Z,88.12
2018-10-19T01:15:45.148Z,180.42
2018-10-19T01:16:23.526Z,132.97
2018-10-19T01:17:02.012Z,48.35
2018-10-19T01:17:41.663Z,57.95
2018-10-19T01:18:19.680Z,131.25
2018-10-19T01:18:57.978Z,68.75
2018-10-19T01:19:36.286Z,108.32
2018-10-19T01:20:14.328Z,76.72
2018-10-19T01:20:52.776Z,64.25
2018-10-19T01:21:31.269Z,31.15
2018-10-19T01:22:09.772Z,47.73
2018-10-19T01:22:47.980Z,116.88
2018-10-19T01:23:26.152Z,71.62
2018-10-19T01:24:04.046Z,96.55
2018-10-19T01:24:41.964Z,65.17
2018-10-19T01:25:20.649Z,71.15
2018-10-19T01:25:58.772Z,86.70
2018-10-19T01:26:36.732Z,78.87
2018-10-19T01:27:14.678Z,101.42
2018-10-19T01:27:53.032Z,248.38
2018-10-19T01:28:30.941Z,196.95
2018-10-19T01:29:09.145Z,215.80
2018-10-19T01:29:47.140Z,239.15
2018-10-19T01:30:25.050Z,203.22
2018-10-19T01:31:03.171Z,180.25
2018-10-19T01:31:42.342Z,184.40
2018-10-19T01:32:20.448Z,185.78
2018-10-19T01:32:58.463Z,171.05
2018-10-19T01:33:36.383Z,185.63
2018-10-19T01:34:14.473Z,183.93
2018-10-19T01:34:52.412Z,162.03
2018-10-19T01:35:30.281Z,170.02
2018-10-19T01:36:10.197Z,196.25
2018-10-19T01:36:48.863Z,131.25
2018-10-19T01:37:27.278Z,126.65
2018-10-19T01:38:05.731Z,157.75
2018-10-19T01:38:45.144Z,210.17
2018-10-19T01:39:23.181Z,126.02
2018-10-19T01:40:02.164Z,102.12
2018-10-19T01:40:40.419Z,59.83
2018-10-19T01:41:19.087Z,118.57
2018-10-19T01:41:57.180Z,90.42
2018-10-19T01:42:35.680Z,75.50
2018-10-19T01:43:14.360Z,55.67
2018-10-19T01:43:52.944Z,47.23
2018-10-19T01:44:31.317Z,60.88
2018-10-19T01:45:11.104Z,68.90
2018-10-19T01:45:53.534Z,40.65
2018-10-19T01:46:31.772Z,31.07
2018-10-19T01:47:09.912Z,27.50
2018-10-19T01:47:48.397Z,33.33
2018-10-19T01:48:27.239Z,47.62
2018-10-19T01:49:05.631Z,39.05
2018-10-19T01:49:46.238Z,28.85
2018-10-19T01:50:24.795Z,26.33
2018-10-19T01:51:03.143Z,36.00
2018-10-19T01:51:41.306Z,27.42
2018-10-19T01:52:19.987Z,28.15
2018-10-19T01:53:00.073Z,26.97
2018-10-19T01:53:39.336Z,24.75
2018-10-19T01:54:18.337Z,27.25
2018-10-19T01:54:57.044Z,27.58
2018-10-19T01:56:17.756Z,26.10
2018-10-19T01:56:56.092Z,26.45
2018-10-19T01:57:34.436Z,26.77
2018-10-19T01:58:13.685Z,27.58
2018-10-19T01:58:53.467Z,27.35
2018-10-19T01:59:31.937Z,28.20
2018-10-19T02:00:12.012Z,29.15
2018-10-19T02:00:50.019Z,27.67
2018-10-19T02:01:28.357Z,25.97
2018-10-19T02:02:06.689Z,27.85
2018-10-19T02:02:44.830Z,25.60
2018-10-19T02:03:25.093Z,25.02
2018-10-19T02:04:03.835Z,26.55
2018-10-19T02:04:42.816Z,26.00
2018-10-19T02:05:21.348Z,25.48
2018-10-19T02:05:59.427Z,26.12
2018-10-19T02:06:37.489Z,27.47
2018-10-19T02:07:16.039Z,25.70
2018-10-19T02:07:53.887Z,27.82
2018-10-19T02:08:32.860Z,25.90
2018-10-19T02:09:12.027Z,27.93
2018-10-19T02:09:50.190Z,25.55
2018-10-19T02:10:28.583Z,27.62
2018-10-19T02:11:06.678Z,26.90
2018-10-19T02:11:45.566Z,26.95
2018-10-19T02:12:25.375Z,27.02
2018-10-19T02:13:03.780Z,27.82
2018-10-19T02:13:42.036Z,27.80
2018-10-19T02:14:20.207Z,29.05
2018-10-19T02:14:58.690Z,28.27
2018-10-19T02:15:38.688Z,28.45
2018-10-19T02:16:18.035Z,26.45
2018-10-19T02:16:56.343Z,28.12
2018-10-19T02:17:34.626Z,27.27
2018-10-19T02:18:12.812Z,30.40
2018-10-19T02:18:51.465Z,31.02
2018-10-19T02:19:29.638Z,30.32
2018-10-19T02:20:08.112Z,27.58
2018-10-19T02:20:46.775Z,32.25
2018-10-19T02:21:25.399Z,29.50
2018-10-19T02:22:03.772Z,26.68
2018-10-19T02:22:41.909Z,31.47
2018-10-19T02:23:20.142Z,29.92
2018-10-19T02:23:58.319Z,27.60
2018-10-19T02:24:36.365Z,29.37
2018-10-19T02:25:15.475Z,30.43
2018-10-19T02:25:53.891Z,31.62
2018-10-19T02:26:32.354Z,28.55
2018-10-19T02:27:10.724Z,29.75
2018-10-19T02:27:50.006Z,27.87
2018-10-19T02:28:28.383Z,26.00
2018-10-19T02:29:07.096Z,26.82
2018-10-19T02:29:46.589Z,27.85
2018-10-19T02:30:25.379Z,29.45
2018-10-19T02:31:03.827Z,32.93
2018-10-19T02:31:42.840Z,36.70
2018-10-19T02:32:21.636Z,40.23
2018-10-19T02:32:59.943Z,31.20
2018-10-19T02:33:38.167Z,30.68
2018-10-19T02:34:16.102Z,32.75
2018-10-19T02:34:56.021Z,29.80
2018-10-19T02:35:34.065Z,42.08
2018-10-19T02:36:12.233Z,44.48
2018-10-19T02:36:50.812Z,37.58
2018-10-19T02:37:29.348Z,46.98
2018-10-19T02:38:08.580Z,33.18
2018-10-19T02:38:47.870Z,31.55
2018-10-19T02:39:25.945Z,31.73
2018-10-19T02:40:04.372Z,36.80
2018-10-19T02:40:42.520Z,47.87
2018-10-19T02:41:20.647Z,35.68
2018-10-19T02:41:59.905Z,136.20
2018-10-19T02:42:38.742Z,58.17
2018-10-19T02:43:17.408Z,23.45
2018-10-19T02:43:55.261Z,25.12
2018-10-19T02:44:33.529Z,36.08
2018-10-19T02:45:13.348Z,38.75
2018-10-19T02:45:51.340Z,82.55
2018-10-19T02:46:29.552Z,111.40
2018-10-19T02:47:07.860Z,108.17
2018-10-19T02:47:45.744Z,112.55
2018-10-19T02:48:23.694Z,163.85
2018-10-19T02:49:02.767Z,185.03
2018-10-19T02:49:40.833Z,150.97
2018-10-19T02:50:19.203Z,138.70
2018-10-19T02:50:57.615Z,153.87
2018-10-19T02:51:36.467Z,145.57
2018-10-19T02:52:14.857Z,151.78
2018-10-19T02:52:52.865Z,177.07
2018-10-19T02:53:30.773Z,162.35
2018-10-19T02:54:09.654Z,157.47
2018-10-19T02:54:47.622Z,257.20
2018-10-19T02:55:25.462Z,174.77
2018-10-19T02:56:03.309Z,264.27
2018-10-19T02:56:41.352Z,271.57
2018-10-19T02:57:19.338Z,249.58
2018-10-19T02:57:57.279Z,418.07
2018-10-19T02:58:35.332Z,341.23
2018-10-19T02:59:13.282Z,293.73
2018-10-19T02:59:52.140Z,291.23
2018-10-19T03:00:30.103Z,170.47
2018-10-19T03:01:08.064Z,261.87
2018-10-19T03:01:45.994Z,195.25
2018-10-19T03:02:23.901Z,122.80
2018-10-19T03:03:01.867Z,129.65
2018-10-19T03:03:39.868Z,108.47
2018-10-19T03:04:17.911Z,130.07
2018-10-19T03:04:55.853Z,90.30
2018-10-19T03:05:33.829Z,124.02
2018-10-19T03:06:11.840Z,98.03
2018-10-19T03:06:49.875Z,90.22
2018-10-19T03:07:28.005Z,69.60
2018-10-19T03:08:05.899Z,108.70
2018-10-19T03:08:43.844Z,70.50
2018-10-19T03:09:22.063Z,147.60
2018-10-19T03:10:00.284Z,114.82
2018-10-19T03:10:38.204Z,127.97
2018-10-19T03:11:16.206Z,87.35
2018-10-19T03:11:54.156Z,128.45
2018-10-19T03:12:32.150Z,118.37
2018-10-19T03:13:10.131Z,134.78
2018-10-19T03:13:48.185Z,154.23
2018-10-19T03:14:26.024Z,88.27
2018-10-19T03:15:04.004Z,120.42
2018-10-19T03:15:42.239Z,126.40
2018-10-19T03:16:20.339Z,95.67
2018-10-19T03:16:58.272Z,112.65
2018-10-19T03:17:36.269Z,132.20
2018-10-19T03:18:14.171Z,85.20
2018-10-19T03:18:53.120Z,53.58
2018-10-19T03:19:31.095Z,82.67
2018-10-19T03:20:10.427Z,71.95
2018-10-19T03:20:48.278Z,76.12
2018-10-19T03:21:26.349Z,59.55
2018-10-19T03:22:04.348Z,69.32
2018-10-19T03:22:42.249Z,22.87
2018-10-19T03:23:20.204Z,23.45
2018-10-19T03:23:58.139Z,24.18
2018-10-19T03:24:36.097Z,23.00
2018-10-19T03:25:14.097Z,23.85
2018-10-19T03:25:51.900Z,23.10
2018-10-19T03:26:31.143Z,26.00
2018-10-19T03:27:09.909Z,24.02
2018-10-19T03:27:47.830Z,23.60
2018-10-19T03:28:25.662Z,22.70
2018-10-19T03:29:03.738Z,24.50
2018-10-19T03:29:41.626Z,25.30
2018-10-19T03:30:19.524Z,26.73
2018-10-19T03:30:57.480Z,29.23
2018-10-19T03:31:35.428Z,30.23
2018-10-19T03:32:14.252Z,27.02
2018-10-19T03:32:52.232Z,25.30
2018-10-19T03:33:30.249Z,29.07
2018-10-19T03:34:08.368Z,29.32
2018-10-19T03:34:46.364Z,24.50
2018-10-19T03:35:24.298Z,30.27
2018-10-19T03:36:02.240Z,24.57
2018-10-19T03:36:40.186Z,27.70
2018-10-19T03:37:18.458Z,28.83
2018-10-19T03:37:56.341Z,25.95
2018-10-19T03:38:34.268Z,28.35
2018-10-19T03:39:12.457Z,24.65
2018-10-19T03:39:50.504Z,23.67
2018-10-19T03:40:28.392Z,24.82
2018-10-19T03:41:06.476Z,25.20
2018-10-19T03:41:44.597Z,28.60
2018-10-19T03:42:22.690Z,33.35
2018-10-19T03:43:00.578Z,27.25
2018-10-19T03:43:38.427Z,26.37
2018-10-19T03:44:16.351Z,24.55
2018-10-19T03:44:54.205Z,29.52
2018-10-19T03:45:32.068Z,33.15
2018-10-19T03:46:11.094Z,29.25
2018-10-19T03:46:48.970Z,27.82
2018-10-19T03:47:27.482Z,26.35
2018-10-19T03:48:06.725Z,30.57
2018-10-19T03:48:44.949Z,27.90
2018-10-19T03:49:23.490Z,26.10
2018-10-19T03:50:01.953Z,24.98
2018-10-19T03:50:39.933Z,24.00
2018-10-19T03:51:19.295Z,25.40
2018-10-19T03:51:58.515Z,27.48
2018-10-19T03:52:36.434Z,26.23
2018-10-19T03:53:15.034Z,23.98
2018-10-19T03:53:53.486Z,23.90
2018-10-19T03:54:31.865Z,23.80
2018-10-19T03:55:10.351Z,29.55
2018-10-19T03:55:48.302Z,27.10
2018-10-19T03:56:26.333Z,26.05
2018-10-19T03:57:05.598Z,25.75
2018-10-19T03:57:44.026Z,44.10
2018-10-19T03:58:22.127Z,28.42
2018-10-19T03:59:00.019Z,27.30
2018-10-19T03:59:38.010Z,50.38
2018-10-19T04:00:15.391Z,32.17
2018-10-19T04:00:53.579Z,37.38
2018-10-19T04:01:31.509Z,28.77
2018-10-19T04:02:09.509Z,35.30
2018-10-19T04:02:47.396Z,30.08
2018-10-19T04:03:25.657Z,33.42
2018-10-19T04:04:04.059Z,24.50
2018-10-19T04:04:42.016Z,28.23
2018-10-19T04:05:20.746Z,24.32
2018-10-19T04:06:00.262Z,26.02
2018-10-19T04:06:38.713Z,27.47
2018-10-19T04:07:16.640Z,25.70
2018-10-19T04:07:54.571Z,30.37
2018-10-19T04:08:32.514Z,23.27
2018-10-19T04:09:14.739Z,29.12
2018-10-19T04:09:52.700Z,27.62
2018-10-19T04:10:31.714Z,24.15
2018-10-19T04:11:11.059Z,25.40
2018-10-19T04:11:50.412Z,25.40
2018-10-19T04:12:28.842Z,26.62
2018-10-19T04:13:07.168Z,25.20
2018-10-19T04:13:45.540Z,27.58
2018-10-19T04:14:25.638Z,25.48
2018-10-19T04:15:05.342Z,24.02
2018-10-19T04:15:44.617Z,26.48
2018-10-19T04:16:22.595Z,28.20
2018-10-19T04:17:00.623Z,31.70
2018-10-19T04:17:38.989Z,29.60
2018-10-19T04:18:18.724Z,27.90
2018-10-19T04:18:56.667Z,27.27
2018-10-19T04:19:34.573Z,26.87
2018-10-19T04:20:12.488Z,29.27
2018-10-19T04:20:50.413Z,25.57
2018-10-19T04:21:28.360Z,25.75
2018-10-19T04:22:06.235Z,25.77
2018-10-19T04:22:44.132Z,26.12
2018-10-19T04:23:22.317Z,30.75
2018-10-19T04:24:04.323Z,28.95
2018-10-19T04:24:42.503Z,25.47
2018-10-19T04:25:21.032Z,30.45
2018-10-19T04:25:59.268Z,24.25
2018-10-19T04:26:38.196Z,27.10
2018-10-19T04:27:16.734Z,25.00
2018-10-19T04:27:54.748Z,28.67
2018-10-19T04:28:33.325Z,26.65
2018-10-19T04:29:11.412Z,25.50
2018-10-19T04:29:49.421Z,26.62
2018-10-19T04:30:28.289Z,32.28
2018-10-19T04:31:07.367Z,26.05
2018-10-19T04:31:45.832Z,25.92
2018-10-19T04:32:25.688Z,26.17
2018-10-19T04:33:04.915Z,27.17
2018-10-19T04:33:44.320Z,26.95
2018-10-19T04:34:23.355Z,26.60
2018-10-19T04:35:01.398Z,31.50
2018-10-19T04:35:39.422Z,25.80
2018-10-19T04:36:17.372Z,30.37
2018-10-19T04:36:59.498Z,26.70
2018-10-19T04:37:37.501Z,26.87
2018-10-19T04:38:15.437Z,26.82
2018-10-19T04:38:53.331Z,24.72
2018-10-19T04:39:31.373Z,26.93
2018-10-19T04:40:13.759Z,22.82
2018-10-19T04:40:51.831Z,25.17
2018-10-19T04:41:29.783Z,26.82
2018-10-19T04:42:08.776Z,26.10
2018-10-19T04:42:48.050Z,24.32
2018-10-19T04:43:26.015Z,26.00
2018-10-19T04:44:04.004Z,25.95
2018-10-19T04:44:43.212Z,25.85
2018-10-19T04:45:21.620Z,27.10
2018-10-19T04:45:59.797Z,23.67
2018-10-19T04:46:37.791Z,26.70
2018-10-19T04:47:16.336Z,23.65
2018-10-19T04:47:54.435Z,24.57
2018-10-19T04:48:32.554Z,24.30
2018-10-19T04:49:10.490Z,27.30
2018-10-19T04:49:48.555Z,24.07
2018-10-19T04:50:26.471Z,27.67
2018-10-19T04:51:04.463Z,23.98
2018-10-19T04:51:42.512Z,27.87
2018-10-19T04:52:20.416Z,24.25
2018-10-19T04:52:59.663Z,24.72
2018-10-19T04:53:38.709Z,25.92
2018-10-19T04:54:17.089Z,26.27
2018-10-19T04:54:55.239Z,24.47
2018-10-19T04:55:33.162Z,28.15
2018-10-19T04:56:11.085Z,23.83
2018-10-19T04:56:49.225Z,26.10
2018-10-19T04:57:27.112Z,25.02
2018-10-19T04:58:05.401Z,25.60
2018-10-19T04:58:44.478Z,25.60
2018-10-19T04:59:22.737Z,28.15
2018-10-19T05:00:01.525Z,26.17
2018-10-19T05:00:40.331Z,26.73
2018-10-19T05:01:18.351Z,28.40
2018-10-19T05:01:56.252Z,24.92
2018-10-19T05:02:34.179Z,26.40
2018-10-19T05:03:12.221Z,25.27
2018-10-19T05:03:50.294Z,27.52
2018-10-19T05:04:28.375Z,26.55
2018-10-19T05:05:06.903Z,28.62
2018-10-19T05:05:44.909Z,25.88
2018-10-19T05:06:22.953Z,25.43
2018-10-19T05:07:00.989Z,26.10
2018-10-19T05:07:39.510Z,25.70
2018-10-19T05:08:17.500Z,25.30
2018-10-19T05:08:56.361Z,28.40
2018-10-19T05:09:34.245Z,27.58
2018-10-19T05:10:12.911Z,25.95
2018-10-19T05:10:50.901Z,30.90
2018-10-19T05:11:28.871Z,28.23
2018-10-19T05:12:07.729Z,26.68
2018-10-19T05:12:45.726Z,26.73
2018-10-19T05:13:23.675Z,27.25
2018-10-19T05:14:01.863Z,25.15
2018-10-19T05:14:39.992Z,27.73
2018-10-19T05:15:18.875Z,26.85
2018-10-19T05:15:56.896Z,26.70
2018-10-19T05:16:34.892Z,26.17
2018-10-19T05:17:13.790Z,27.20
2018-10-19T05:17:51.829Z,26.15
2018-10-19T05:18:29.786Z,24.47
2018-10-19T05:19:07.799Z,26.65
2018-10-19T05:19:45.966Z,24.98
2018-10-19T05:20:23.988Z,26.65
2018-10-19T05:21:02.997Z,26.85
2018-10-19T05:21:40.881Z,29.05
2018-10-19T05:22:19.018Z,28.52
2018-10-19T05:22:56.962Z,25.65
2018-10-19T05:23:35.593Z,24.35
2018-10-19T05:24:15.987Z,29.18
2018-10-19T05:24:53.931Z,24.77
2018-10-19T05:25:31.843Z,25.72
2018-10-19T05:26:09.978Z,27.10
2018-10-19T05:26:48.066Z,25.65
2018-10-19T05:27:26.017Z,26.17
2018-10-19T05:28:03.964Z,26.17
2018-10-19T05:28:41.862Z,24.50
2018-10-19T05:29:19.755Z,24.00
2018-10-19T05:29:57.684Z,23.70
2018-10-19T05:30:35.491Z,24.90
2018-10-19T05:31:13.397Z,26.97
2018-10-19T05:31:51.487Z,25.45
2018-10-19T05:32:29.359Z,24.65
2018-10-19T05:33:07.624Z,24.15
2018-10-19T05:33:45.659Z,25.55
2018-10-19T05:34:24.558Z,25.77
2018-10-19T05:35:03.562Z,24.02
2018-10-19T05:35:41.696Z,23.85
2018-10-19T05:36:19.687Z,27.30
2018-10-19T05:36:57.837Z,23.95
2018-10-19T05:37:35.721Z,25.32
2018-10-19T05:38:13.677Z,25.48
2018-10-19T05:38:51.749Z,24.90
2018-10-19T05:39:30.617Z,24.10
2018-10-19T05:40:08.915Z,24.63
2018-10-19T05:40:46.844Z,27.15
2018-10-19T05:41:24.730Z,25.55
2018-10-19T05:42:02.643Z,25.85
2018-10-19T05:42:40.966Z,25.20
2018-10-19T05:43:19.078Z,24.80
2018-10-19T05:43:57.073Z,24.92
2018-10-19T05:44:35.019Z,26.20
2018-10-19T05:45:14.760Z,25.82
2018-10-19T05:45:52.864Z,26.25
2018-10-19T05:46:30.749Z,25.62
2018-10-19T05:47:08.851Z,25.23
2018-10-19T05:47:48.633Z,24.45
2018-10-19T05:48:26.626Z,26.75
2018-10-19T05:49:04.521Z,36.00
2018-10-19T05:49:42.417Z,25.80
2018-10-19T05:50:20.313Z,24.82
2018-10-19T05:50:58.273Z,27.70
2018-10-19T05:51:36.245Z,24.63
2018-10-19T05:52:14.757Z,25.85
2018-10-19T05:52:53.011Z,23.90
2018-10-19T05:53:30.886Z,29.23
2018-10-19T05:54:08.944Z,26.65
2018-10-19T05:54:46.988Z,24.02
2018-10-19T05:55:24.841Z,24.75
2018-10-19T05:56:02.950Z,30.00
2018-10-19T05:56:41.028Z,24.40
2018-10-19T05:57:18.928Z,24.25
2018-10-19T05:57:56.855Z,26.70
2018-10-19T05:58:34.676Z,25.77
2018-10-19T05:59:12.593Z,24.65
2018-10-19T05:59:50.647Z,25.80
2018-10-19T06:00:28.555Z,27.60
2018-10-19T06:01:07.446Z,24.75
2018-10-19T06:01:45.348Z,24.75
2018-10-19T06:02:23.313Z,24.70
2018-10-19T06:03:01.280Z,24.37
2018-10-19T06:03:39.260Z,25.35
2018-10-19T06:04:17.196Z,24.23
2018-10-19T06:04:55.110Z,28.98
2018-10-19T06:05:33.089Z,26.77
2018-10-19T06:06:11.942Z,27.85
2018-10-19T06:06:50.278Z,23.92
2018-10-19T06:07:28.296Z,27.90
2018-10-19T06:08:06.265Z,25.40
2018-10-19T06:08:44.206Z,23.42
2018-10-19T06:09:22.262Z,25.15
2018-10-19T06:10:00.593Z,24.40
2018-10-19T06:10:38.620Z,26.13
2018-10-19T06:11:16.617Z,24.85
2018-10-19T06:11:54.659Z,28.55
2018-10-19T06:12:32.604Z,25.85
2018-10-19T06:13:10.489Z,24.75
2018-10-19T06:13:48.518Z,24.30
2018-10-19T06:14:26.750Z,25.75
2018-10-19T06:15:04.568Z,23.27
2018-10-19T06:15:42.683Z,26.73
2018-10-19T06:16:20.642Z,24.43
2018-10-19T06:16:58.592Z,26.52
2018-10-19T06:17:36.542Z,23.20
2018-10-19T06:18:14.451Z,24.75
2018-10-19T06:18:52.359Z,23.67
2018-10-19T06:19:31.359Z,28.10
2018-10-19T06:20:13.379Z,26.07
2018-10-19T06:20:51.407Z,24.60
2018-10-19T06:21:29.419Z,25.25
2018-10-19T06:22:07.336Z,24.37
2018-10-19T06:22:45.304Z,22.75
2018-10-19T06:23:23.190Z,24.05
2018-10-19T06:24:01.950Z,24.35
2018-10-19T06:24:40.055Z,23.87
2018-10-19T06:25:18.003Z,24.50
2018-10-19T06:25:57.086Z,24.00
2018-10-19T06:26:35.306Z,26.03
2018-10-19T06:27:13.258Z,24.00
2018-10-19T06:27:51.135Z,22.85
2018-10-19T06:28:29.037Z,25.40
2018-10-19T06:29:07.022Z,23.47
2018-10-19T06:29:44.913Z,25.05
2018-10-19T06:30:22.740Z,23.40
2018-10-19T06:31:01.647Z,25.92
2018-10-19T06:31:44.000Z,25.70
2018-10-19T06:32:22.110Z,22.70
2018-10-19T06:33:00.079Z,26.17
2018-10-19T06:33:38.195Z,23.47
2018-10-19T06:34:16.245Z,26.00
2018-10-19T06:34:54.203Z,25.02
2018-10-19T06:35:32.169Z,24.45
2018-10-19T06:36:10.149Z,23.47
2018-10-19T06:36:47.987Z,25.95
2018-10-19T06:37:26.869Z,24.50
2018-10-19T06:38:04.824Z,24.15
2018-10-19T06:38:42.741Z,26.90
2018-10-19T06:39:21.659Z,23.20
2018-10-19T06:39:59.542Z,26.82
2018-10-19T06:40:37.622Z,25.30
2018-10-19T06:41:15.518Z,24.07
2018-10-19T06:41:53.775Z,28.15
2018-10-19T06:42:33.405Z,24.50
2018-10-19T06:43:11.333Z,23.35
2018-10-19T06:43:49.287Z,26.02
2018-10-19T06:44:27.256Z,24.40
2018-10-19T06:45:06.302Z,22.20
2018-10-19T06:45:44.287Z,23.40
2018-10-19T06:46:22.211Z,24.85
2018-10-19T06:47:00.356Z,23.35
2018-10-19T06:47:38.271Z,25.85
2018-10-19T06:48:16.216Z,25.23
2018-10-19T06:48:54.215Z,25.97
2018-10-19T06:49:32.248Z,26.42
2018-10-19T06:50:12.202Z,25.88
2018-10-19T06:50:50.291Z,22.32
2018-10-19T06:51:28.282Z,26.05
2018-10-19T06:52:06.201Z,24.10
2018-10-19T06:52:44.230Z,23.70
2018-10-19T06:53:23.089Z,24.47
2018-10-19T06:54:01.020Z,22.80
2018-10-19T06:54:38.976Z,23.77
2018-10-19T06:55:21.201Z,22.07
2018-10-19T06:55:59.257Z,22.15
2018-10-19T06:56:37.160Z,23.97
2018-10-19T06:57:15.224Z,27.60
2018-10-19T06:57:53.218Z,24.98
2018-10-19T06:58:31.243Z,27.85
2018-10-19T06:59:09.313Z,23.22
2018-10-19T06:59:47.353Z,23.80
2018-10-19T07:00:25.379Z,24.30
2018-10-19T07:01:04.064Z,28.05
2018-10-19T07:01:42.238Z,25.35
2018-10-19T07:02:20.164Z,22.50
2018-10-19T07:02:58.153Z,28.77
2018-10-19T07:03:36.105Z,25.37
2018-10-19T07:04:15.265Z,24.00
2018-10-19T07:04:53.498Z,23.40
2018-10-19T07:05:31.762Z,25.10
2018-10-19T07:06:10.266Z,24.87
2018-10-19T07:06:48.371Z,25.40
2018-10-19T07:07:26.322Z,22.85
2018-10-19T07:08:04.255Z,22.75
2018-10-19T07:08:42.269Z,24.80
2018-10-19T07:09:20.301Z,22.22
2018-10-19T07:09:59.044Z,23.62
2018-10-19T07:10:37.787Z,23.63
2018-10-19T07:11:15.678Z,22.37
2018-10-19T07:11:53.788Z,22.75
2018-10-19T07:12:31.668Z,23.65
2018-10-19T07:13:10.485Z,24.15
2018-10-19T07:13:48.408Z,26.33
2018-10-19T07:14:26.515Z,24.40
2018-10-19T07:15:04.563Z,21.42
2018-10-19T07:15:43.210Z,23.38
2018-10-19T07:16:21.202Z,24.90
2018-10-19T07:16:59.164Z,25.23
2018-10-19T07:17:38.226Z,27.20
2018-10-19T07:18:16.157Z,23.47
2018-10-19T07:18:54.243Z,23.70
2018-10-19T07:19:32.260Z,24.72
2018-10-19T07:20:12.580Z,22.07
2018-10-19T07:20:50.510Z,22.60
2018-10-19T07:21:28.439Z,22.60
2018-10-19T07:22:06.300Z,28.83
2018-10-19T07:22:44.189Z,25.65
2018-10-19T07:23:22.083Z,23.47
2018-10-19T07:24:00.051Z,22.00
2018-10-19T07:24:37.924Z,23.67
2018-10-19T07:25:16.427Z,23.65
2018-10-19T07:25:54.948Z,25.43
2018-10-19T07:26:33.776Z,23.02
2018-10-19T07:27:11.851Z,23.00
2018-10-19T07:27:49.790Z,24.00
2018-10-19T07:28:27.725Z,23.32
2018-10-19T07:29:05.748Z,22.90
2018-10-19T07:29:43.718Z,23.83
2018-10-19T07:30:21.641Z,24.50
2018-10-19T07:31:00.517Z,23.25
2018-10-19T07:31:38.338Z,22.55
2018-10-19T07:32:16.521Z,22.50
2018-10-19T07:32:54.451Z,23.52
2018-10-19T07:33:32.484Z,28.70
2018-10-19T07:34:10.354Z,23.85
2018-10-19T07:34:49.511Z,23.50
2018-10-19T07:35:27.697Z,25.85
2018-10-19T07:36:05.645Z,25.02
2018-10-19T07:36:43.707Z,21.20
2018-10-19T07:37:21.706Z,24.30
2018-10-19T07:37:59.596Z,23.10
2018-10-19T07:38:38.427Z,23.83
2018-10-19T07:39:16.374Z,22.50
2018-10-19T07:39:54.241Z,26.82
2018-10-19T07:40:32.269Z,27.35
2018-10-19T07:41:11.243Z,23.47
2018-10-19T07:41:49.351Z,23.80
2018-10-19T07:42:27.476Z,22.15
2018-10-19T07:43:05.498Z,26.52
2018-10-19T07:43:43.390Z,23.15
2018-10-19T07:44:21.491Z,25.30
2018-10-19T07:44:59.401Z,23.62
2018-10-19T07:45:37.331Z,23.42
2018-10-19T07:46:16.805Z,23.62
2018-10-19T07:46:54.853Z,24.67
2018-10-19T07:47:32.979Z,23.38
2018-10-19T07:48:11.221Z,25.72
2018-10-19T07:48:49.010Z,25.20
2018-10-19T07:49:26.933Z,28.75
2018-10-19T07:50:04.834Z,22.80
2018-10-19T07:50:42.894Z,21.60
2018-10-19T07:51:20.793Z,25.45
2018-10-19T07:51:58.717Z,22.37
2018-10-19T07:52:36.716Z,23.80
2018-10-19T07:53:14.680Z,27.17
2018-10-19T07:53:52.654Z,22.93
2018-10-19T07:54:30.647Z,25.23
2018-10-19T07:55:09.224Z,24.15
2018-10-19T07:55:47.312Z,22.15
2018-10-19T07:56:25.243Z,25.02
2018-10-19T07:57:03.365Z,22.25
2018-10-19T07:57:41.332Z,22.62
2018-10-19T07:58:19.345Z,23.75
2018-10-19T07:58:57.279Z,23.45
2018-10-19T07:59:35.134Z,24.52
2018-10-19T08:00:13.364Z,25.82
2018-10-19T08:00:51.886Z,23.27
2018-10-19T08:01:29.902Z,22.70
2018-10-19T08:02:08.222Z,23.42
2018-10-19T08:02:46.121Z,22.40
2018-10-19T08:03:24.108Z,29.30
2018-10-19T08:04:02.071Z,22.70
2018-10-19T08:04:40.205Z,25.07
2018-10-19T08:05:18.101Z,23.45
2018-10-19T08:05:56.091Z,27.17
2018-10-19T08:06:34.122Z,22.70
2018-10-19T08:07:13.007Z,27.48
2018-10-19T08:07:50.905Z,24.50
2018-10-19T08:08:29.892Z,23.30
2018-10-19T08:09:10.211Z,23.95
2018-10-19T08:09:48.329Z,23.85
2018-10-19T08:10:26.209Z,23.32
2018-10-19T08:11:04.189Z,23.73
2018-10-19T08:11:42.294Z,25.72
2018-10-19T08:12:20.178Z,26.15
2018-10-19T08:12:58.139Z,23.57